Terminal Aerodrome Forecast
Issued by NWS

Home | Current Version | Previous Version | Text Only | Print | Product List | Glossary Off
Versions: 1 2 3 4 5 6 7 8 9 10 11 12 13 14 15 16 17 18 19

150
FTUS43 KFGF 091120
TAFBJI
TAF
KBJI 091120Z 0912/1012 33009KT P6SM BKN015
     FM091400 31005KT P6SM BKN025
     FM091800 27006KT P6SM BKN035
     FM100000 21008KT P6SM BKN050
     FM100700 29006KT P6SM BKN010=

USA.gov is the U.S. government's official web portal to all federal, state and local government web resources and services.